sensor_id;sensor_type;location;lat;lon;timestamp;pressure;altitude;pressure_sealevel;temperature;humidity
59757;BME280;45631;51.962;5.974;2022-10-23T00:01:13;101326.00;;;10.55;100.00
59757;BME280;45631;51.962;5.974;2022-10-23T00:03:44;101324.22;;;10.56;100.00
59757;BME280;45631;51.962;5.974;2022-10-23T00:06:13;101317.25;;;10.55;100.00
59757;BME280;45631;51.962;5.974;2022-10-23T00:08:42;101302.41;;;10.54;100.00
59757;BME280;45631;51.962;5.974;2022-10-23T00:11:13;101301.38;;;10.56;100.00
59757;BME280;45631;51.962;5.974;2022-10-23T00:13:41;101300.44;;;10.57;100.00
59757;BME280;45631;51.962;5.974;2022-10-23T00:16:10;101293.50;;;10.56;100.00
59757;BME280;45631;51.962;5.974;2022-10-23T00:18:38;101284.84;;;10.54;100.00
59757;BME280;45631;51.962;5.974;2022-10-23T00:21:10;101291.81;;;10.55;100.00
59757;BME280;45631;51.962;5.974;2022-10-23T00:23:38;101289.44;;;10.51;100.00
59757;BME280;45631;51.962;5.974;2022-10-23T00:26:07;101288.75;;;10.47;100.00
59757;BME280;45631;51.962;5.974;2022-10-23T00:28:41;101295.91;;;10.45;100.00
59757;BME280;45631;51.962;5.974;2022-10-23T00:31:12;101290.81;;;10.42;100.00
59757;BME280;45631;51.962;5.974;2022-10-23T00:33:40;101296.84;;;10.44;100.00
59757;BME280;45631;51.962;5.974;2022-10-23T00:36:12;101295.13;;;10.43;100.00
59757;BME280;45631;51.962;5.974;2022-10-23T00:38:40;101293.78;;;10.36;100.00
59757;BME280;45631;51.962;5.974;2022-10-23T00:41:19;101287.75;;;10.34;100.00
59757;BME280;45631;51.962;5.974;2022-10-23T00:43:57;101289.47;;;10.35;100.00
59757;BME280;45631;51.962;5.974;2022-10-23T00:46:26;101289.63;;;10.31;100.00
59757;BME280;45631;51.962;5.974;2022-10-23T00:48:55;101295.72;;;10.32;100.00
59757;BME280;45631;51.962;5.974;2022-10-23T00:51:27;101290.53;;;10.30;100.00
59757;BME280;45631;51.962;5.974;2022-10-23T00:53:59;101280.97;;;10.29;100.00
59757;BME280;45631;51.962;5.974;2022-10-23T00:56:50;101279.47;;;10.25;100.00
59757;BME280;45631;51.962;5.974;2022-10-23T00:59:18;101280.38;;;10.24;100.00
59757;BME280;45631;51.962;5.974;2022-10-23T01:01:46;101283.03;;;10.24;100.00
59757;BME280;45631;51.962;5.974;2022-10-23T01:04:15;101280.38;;;10.24;100.00
59757;BME280;45631;51.962;5.974;2022-10-23T01:06:51;101278.59;;;10.25;100.00
59757;BME280;45631;51.962;5.974;2022-10-23T01:09:29;101280.72;;;10.18;100.00
59757;BME280;45631;51.962;5.974;2022-10-23T01:12:06;101277.34;;;10.16;100.00
59757;BME280;45631;51.962;5.974;2022-10-23T01:14:42;101273.72;;;10.19;100.00
59757;BME280;45631;51.962;5.974;2022-10-23T01:17:21;101273.94;;;10.14;100.00
59757;BME280;45631;51.962;5.974;2022-10-23T01:20:04;101275.75;;;10.13;100.00
59757;BME280;45631;51.962;5.974;2022-10-23T01:22:51;101277.59;;;10.11;100.00
59757;BME280;45631;51.962;5.974;2022-10-23T01:25:28;101278.53;;;10.10;100.00
59757;BME280;45631;51.962;5.974;2022-10-23T01:28:05;101283.13;;;10.07;100.00
59757;BME280;45631;51.962;5.974;2022-10-23T01:30:39;101275.41;;;10.04;100.00
59757;BME280;45631;51.962;5.974;2022-10-23T01:33:13;101269.28;;;10.03;100.00
59757;BME280;45631;51.962;5.974;2022-10-23T01:35:44;101262.28;;;10.04;100.00
59757;BME280;45631;51.962;5.974;2022-10-23T01:38:17;101257.75;;;10.06;100.00
59757;BME280;45631;51.962;5.974;2022-10-23T01:40:49;101254.22;;;10.07;100.00
59757;BME280;45631;51.962;5.974;2022-10-23T01:43:26;101261.16;;;10.08;100.00
59757;BME280;45631;51.962;5.974;2022-10-23T01:45:59;101260.31;;;10.07;100.00
59757;BME280;45631;51.962;5.974;2022-10-23T01:48:29;101263.78;;;10.08;100.00
59757;BME280;45631;51.962;5.974;2022-10-23T01:51:02;101254.97;;;10.09;100.00
59757;BME280;45631;51.962;5.974;2022-10-23T01:53:35;101239.28;;;10.07;100.00
59757;BME280;45631;51.962;5.974;2022-10-23T01:56:10;101245.31;;;10.09;100.00
59757;BME280;45631;51.962;5.974;2022-10-23T01:58:42;101245.41;;;10.08;100.00
59757;BME280;45631;51.962;5.974;2022-10-23T02:01:12;101243.59;;;10.08;100.00
59757;BME280;45631;51.962;5.974;2022-10-23T02:03:42;101235.72;;;10.08;100.00
59757;BME280;45631;51.962;5.974;2022-10-23T02:06:11;101234.88;;;10.08;100.00
59757;BME280;45631;51.962;5.974;2022-10-23T02:08:39;101233.88;;;10.10;100.00
59757;BME280;45631;51.962;5.974;2022-10-23T02:11:09;101235.72;;;10.08;100.00
59757;BME280;45631;51.962;5.974;2022-10-23T02:13:43;101235.72;;;10.08;100.00
59757;BME280;45631;51.962;5.974;2022-10-23T02:16:19;101224.47;;;10.06;100.00
59757;BME280;45631;51.962;5.974;2022-10-23T02:18:54;101218.44;;;10.04;100.00
59757;BME280;45631;51.962;5.974;2022-10-23T02:21:29;101222.09;;;10.02;100.00
59757;BME280;45631;51.962;5.974;2022-10-23T02:24:04;101217.75;;;10.01;100.00
59757;BME280;45631;51.962;5.974;2022-10-23T02:26:38;101216.09;;;10.00;100.00
59757;BME280;45631;51.962;5.974;2022-10-23T02:29:13;101201.94;;;10.02;100.00
59757;BME280;45631;51.962;5.974;2022-10-23T02:31:42;101200.31;;;10.00;100.00
59757;BME280;45631;51.962;5.974;2022-10-23T02:34:10;101189.91;;;9.98;100.00
59757;BME280;45631;51.962;5.974;2022-10-23T02:36:39;101204.72;;;9.99;100.00
59757;BME280;45631;51.962;5.974;2022-10-23T02:39:08;101200.22;;;10.01;100.00
59757;BME280;45631;51.962;5.974;2022-10-23T02:41:40;101203.69;;;10.02;100.00
59757;BME280;45631;51.962;5.974;2022-10-23T02:44:20;101205.56;;;10.00;100.00
59757;BME280;45631;51.962;5.974;2022-10-23T02:46:56;101207.34;;;9.99;100.00
59757;BME280;45631;51.962;5.974;2022-10-23T02:49:33;101204.88;;;9.96;100.00
59757;BME280;45631;51.962;5.974;2022-10-23T02:52:08;101211.06;;;9.95;100.00
59757;BME280;45631;51.962;5.974;2022-10-23T02:54:53;101214.16;;;9.87;100.00
59757;BME280;45631;51.962;5.974;2022-10-23T02:57:28;101203.78;;;9.84;100.00
59757;BME280;45631;51.962;5.974;2022-10-23T03:00:08;101201.16;;;9.84;100.00
59757;BME280;45631;51.962;5.974;2022-10-23T03:02:39;101198.81;;;9.79;100.00
59757;BME280;45631;51.962;5.974;2022-10-23T03:05:11;101199.81;;;9.77;100.00
59757;BME280;45631;51.962;5.974;2022-10-23T03:07:43;101196.09;;;9.81;100.00
59757;BME280;45631;51.962;5.974;2022-10-23T03:10:13;101182.13;;;9.80;100.00
59757;BME280;45631;51.962;5.974;2022-10-23T03:12:41;101178.63;;;9.80;100.00
59757;BME280;45631;51.962;5.974;2022-10-23T03:15:11;101167.38;;;9.78;100.00
59757;BME280;45631;51.962;5.974;2022-10-23T03:17:40;101170.75;;;9.80;100.00
59757;BME280;45631;51.962;5.974;2022-10-23T03:20:10;101168.13;;;9.80;100.00
59757;BME280;45631;51.962;5.974;2022-10-23T03:22:38;101167.28;;;9.79;100.00
59757;BME280;45631;51.962;5.974;2022-10-23T03:25:07;101163.88;;;9.77;100.00
59757;BME280;45631;51.962;5.974;2022-10-23T03:27:36;101160.25;;;9.80;100.00
59757;BME280;45631;51.962;5.974;2022-10-23T03:30:05;101155.09;;;9.78;100.00
59757;BME280;45631;51.962;5.974;2022-10-23T03:32:35;101157.63;;;9.80;100.00
59757;BME280;45631;51.962;5.974;2022-10-23T03:35:04;101148.06;;;9.79;100.00
59757;BME280;45631;51.962;5.974;2022-10-23T03:37:32;101146.19;;;9.81;100.00
59757;BME280;45631;51.962;5.974;2022-10-23T03:40:00;101145.34;;;9.80;100.00
59757;BME280;45631;51.962;5.974;2022-10-23T03:42:28;101134.75;;;9.82;100.00
59757;BME280;45631;51.962;5.974;2022-10-23T03:44:56;101133.88;;;9.81;100.00
59757;BME280;45631;51.962;5.974;2022-10-23T03:47:24;101137.38;;;9.82;100.00
59757;BME280;45631;51.962;5.974;2022-10-23T03:49:54;101143.56;;;9.81;100.00
59757;BME280;45631;51.962;5.974;2022-10-23T03:52:22;101138.13;;;9.84;100.00
59757;BME280;45631;51.962;5.974;2022-10-23T03:54:55;101130.25;;;9.84;100.00
59757;BME280;45631;51.962;5.974;2022-10-23T03:57:23;101121.44;;;9.85;100.00
59757;BME280;45631;51.962;5.974;2022-10-23T03:59:52;101121.34;;;9.87;100.00
59757;BME280;45631;51.962;5.974;2022-10-23T04:02:20;101112.72;;;9.85;100.00
59757;BME280;45631;51.962;5.974;2022-10-23T04:04:48;101116.94;;;9.87;100.00
59757;BME280;45631;51.962;5.974;2022-10-23T04:07:18;101115.16;;;9.88;100.00
59757;BME280;45631;51.962;5.974;2022-10-23T04:09:46;101109.81;;;9.89;100.00
59757;BME280;45631;51.962;5.974;2022-10-23T04:12:14;101112.25;;;9.92;100.00
59757;BME280;45631;51.962;5.974;2022-10-23T04:14:42;101109.47;;;9.95;100.00
59757;BME280;45631;51.962;5.974;2022-10-23T04:17:10;101098.78;;;9.98;100.00
59757;BME280;45631;51.962;5.974;2022-10-23T04:19:38;101098.69;;;10.00;100.00
59757;BME280;45631;51.962;5.974;2022-10-23T04:22:06;101088.94;;;10.02;100.00
59757;BME280;45631;51.962;5.974;2022-10-23T04:24:36;101081.88;;;10.03;100.00
59757;BME280;45631;51.962;5.974;2022-10-23T04:27:04;101081.59;;;10.07;100.00
59757;BME280;45631;51.962;5.974;2022-10-23T04:29:32;101082.09;;;10.14;100.00
59757;BME280;45631;51.962;5.974;2022-10-23T04:32:00;101081.94;;;10.17;100.00
59757;BME280;45631;51.962;5.974;2022-10-23T04:34:28;101085.88;;;10.24;100.00
59757;BME280;45631;51.962;5.974;2022-10-23T04:36:57;101086.44;;;10.29;100.00
59757;BME280;45631;51.962;5.974;2022-10-23T04:39:25;101090.59;;;10.34;100.00
59757;BME280;45631;51.962;5.974;2022-10-23T04:41:54;101094.56;;;10.41;100.00
59757;BME280;45631;51.962;5.974;2022-10-23T04:44:22;101078.22;;;10.36;100.00
59757;BME280;45631;51.962;5.974;2022-10-23T04:46:51;101073.81;;;10.36;100.00
59757;BME280;45631;51.962;5.974;2022-10-23T04:49:19;101080.84;;;10.36;100.00
59757;BME280;45631;51.962;5.974;2022-10-23T04:51:47;101086.88;;;10.38;100.00
59757;BME280;45631;51.962;5.974;2022-10-23T04:54:15;101075.38;;;10.39;100.00
59757;BME280;45631;51.962;5.974;2022-10-23T04:56:43;101077.94;;;10.40;100.00
59757;BME280;45631;51.962;5.974;2022-10-23T04:59:13;101068.25;;;10.41;100.00
59757;BME280;45631;51.962;5.974;2022-10-23T05:01:41;101065.63;;;10.41;100.00
59757;BME280;45631;51.962;5.974;2022-10-23T05:04:09;101055.78;;;10.44;100.00
59757;BME280;45631;51.962;5.974;2022-10-23T05:06:37;101059.25;;;10.45;100.00
59757;BME280;45631;51.962;5.974;2022-10-23T05:09:05;101063.75;;;10.43;100.00
59757;BME280;45631;51.962;5.974;2022-10-23T05:11:34;101059.16;;;10.46;100.00
59757;BME280;45631;51.962;5.974;2022-10-23T05:14:02;101058.13;;;10.49;100.00
59757;BME280;45631;51.962;5.974;2022-10-23T05:16:38;101052.03;;;10.48;100.00
59757;BME280;45631;51.962;5.974;2022-10-23T05:19:16;101053.69;;;10.49;100.00
59757;BME280;45631;51.962;5.974;2022-10-23T05:21:50;101051.06;;;10.49;100.00
59757;BME280;45631;51.962;5.974;2022-10-23T05:24:21;101053.59;;;10.51;100.00
59757;BME280;45631;51.962;5.974;2022-10-23T05:26:50;101057.75;;;10.55;100.00
59757;BME280;45631;51.962;5.974;2022-10-23T05:29:19;101052.56;;;10.54;100.00
59757;BME280;45631;51.962;5.974;2022-10-23T05:31:51;101048.06;;;10.56;100.00
59757;BME280;45631;51.962;5.974;2022-10-23T05:34:23;101043.66;;;10.56;100.00
59757;BME280;45631;51.962;5.974;2022-10-23T05:36:52;101044.59;;;10.55;100.00
59757;BME280;45631;51.962;5.974;2022-10-23T05:39:22;101040.66;;;10.62;100.00
59757;BME280;45631;51.962;5.974;2022-10-23T05:41:50;101035.19;;;10.65;100.00
59757;BME280;45631;51.962;5.974;2022-10-23T05:44:20;101040.56;;;10.64;100.00
59757;BME280;45631;51.962;5.974;2022-10-23T05:46:50;101047.22;;;10.70;100.00
59757;BME280;45631;51.962;5.974;2022-10-23T05:49:18;101052.16;;;10.74;100.00
59757;BME280;45631;51.962;5.974;2022-10-23T05:51:46;101048.50;;;10.77;100.00
59757;BME280;45631;51.962;5.974;2022-10-23T05:54:14;101047.38;;;10.81;100.00
59757;BME280;45631;51.962;5.974;2022-10-23T05:56:42;101042.03;;;10.82;100.00
59757;BME280;45631;51.962;5.974;2022-10-23T05:59:10;101027.91;;;10.83;100.00
59757;BME280;45631;51.962;5.974;2022-10-23T06:01:38;101033.84;;;10.87;100.00
59757;BME280;45631;51.962;5.974;2022-10-23T06:04:08;101038.91;;;10.90;100.00
59757;BME280;45631;51.962;5.974;2022-10-23T06:06:36;101034.09;;;10.97;100.00
59757;BME280;45631;51.962;5.974;2022-10-23T06:09:04;101036.53;;;11.00;100.00
59757;BME280;45631;51.962;5.974;2022-10-23T06:11:32;101031.91;;;11.04;100.00
59757;BME280;45631;51.962;5.974;2022-10-23T06:14:00;101037.09;;;11.05;100.00
59757;BME280;45631;51.962;5.974;2022-10-23T06:16:28;101021.19;;;11.07;100.00
59757;BME280;45631;51.962;5.974;2022-10-23T06:18:57;101018.56;;;11.07;100.00
59757;BME280;45631;51.962;5.974;2022-10-23T06:21:27;101019.00;;;11.13;100.00
59757;BME280;45631;51.962;5.974;2022-10-23T06:23:55;101014.50;;;11.15;100.00
59757;BME280;45631;51.962;5.974;2022-10-23T06:26:23;101013.53;;;11.16;100.00
59757;BME280;45631;51.962;5.974;2022-10-23T06:28:52;101012.50;;;11.19;100.00
59757;BME280;45631;51.962;5.974;2022-10-23T06:31:20;100999.22;;;11.21;100.00
59757;BME280;45631;51.962;5.974;2022-10-23T06:33:53;101006.09;;;11.23;100.00
59757;BME280;45631;51.962;5.974;2022-10-23T06:36:21;101000.66;;;11.26;100.00
59757;BME280;45631;51.962;5.974;2022-10-23T06:38:51;101000.44;;;11.29;100.00
59757;BME280;45631;51.962;5.974;2022-10-23T06:41:22;100996.00;;;11.30;100.00
59757;BME280;45631;51.962;5.974;2022-10-23T06:43:50;100990.63;;;11.31;100.00
59757;BME280;45631;51.962;5.974;2022-10-23T06:46:19;100992.22;;;11.34;100.00
59757;BME280;45631;51.962;5.974;2022-10-23T06:48:47;100994.56;;;11.39;100.00
59757;BME280;45631;51.962;5.974;2022-10-23T06:51:16;100984.66;;;11.42;100.00
59757;BME280;45631;51.962;5.974;2022-10-23T06:53:45;100992.16;;;11.48;100.00
59757;BME280;45631;51.962;5.974;2022-10-23T06:56:14;100995.44;;;11.52;100.00
59757;BME280;45631;51.962;5.974;2022-10-23T06:58:42;100998.09;;;11.52;100.00
59757;BME280;45631;51.962;5.974;2022-10-23T07:01:12;100994.47;;;11.53;100.00
59757;BME280;45631;51.962;5.974;2022-10-23T07:03:42;100984.59;;;11.57;100.00
59757;BME280;45631;51.962;5.974;2022-10-23T07:06:10;100981.84;;;11.58;100.00
59757;BME280;45631;51.962;5.974;2022-10-23T07:08:39;100978.06;;;11.62;100.00
59757;BME280;45631;51.962;5.974;2022-10-23T07:11:08;100983.13;;;11.65;100.00
59757;BME280;45631;51.962;5.974;2022-10-23T07:13:39;100977.84;;;11.65;100.00
59757;BME280;45631;51.962;5.974;2022-10-23T07:16:10;100981.03;;;11.71;100.00
59757;BME280;45631;51.962;5.974;2022-10-23T07:18:39;100987.97;;;11.72;100.00
59757;BME280;45631;51.962;5.974;2022-10-23T07:21:07;100986.00;;;11.75;100.00
59757;BME280;45631;51.962;5.974;2022-10-23T07:23:35;100975.34;;;11.77;100.00
59757;BME280;45631;51.962;5.974;2022-10-23T07:26:05;100980.41;;;11.80;100.00
59757;BME280;45631;51.962;5.974;2022-10-23T07:28:34;100971.44;;;11.82;100.00
59757;BME280;45631;51.962;5.974;2022-10-23T07:31:04;100973.03;;;11.85;100.00
59757;BME280;45631;51.962;5.974;2022-10-23T07:33:32;100972.81;;;11.88;100.00
59757;BME280;45631;51.962;5.974;2022-10-23T07:36:03;100976.38;;;11.87;100.00
59757;BME280;45631;51.962;5.974;2022-10-23T07:38:31;100974.09;;;11.95;100.00
59757;BME280;45631;51.962;5.974;2022-10-23T07:41:00;100971.16;;;12.00;100.00
59757;BME280;45631;51.962;5.974;2022-10-23T07:43:28;100972.75;;;12.03;100.00
59757;BME280;45631;51.962;5.974;2022-10-23T07:45:57;100966.41;;;12.05;100.00
59757;BME280;45631;51.962;5.974;2022-10-23T07:48:28;100968.97;;;12.07;100.00
59757;BME280;45631;51.962;5.974;2022-10-23T07:50:57;100964.19;;;12.12;100.00
59757;BME280;45631;51.962;5.974;2022-10-23T07:53:27;100965.56;;;12.17;100.00
59757;BME280;45631;51.962;5.974;2022-10-23T07:55:57;100952.88;;;12.23;100.00
59757;BME280;45631;51.962;5.974;2022-10-23T07:58:26;100958.16;;;12.36;100.00
59757;BME280;45631;51.962;5.974;2022-10-23T08:00:59;100953.59;;;12.38;100.00
59757;BME280;45631;51.962;5.974;2022-10-23T08:03:31;100948.97;;;12.41;100.00
59757;BME280;45631;51.962;5.974;2022-10-23T08:05:59;100954.88;;;12.45;100.00
59757;BME280;45631;51.962;5.974;2022-10-23T08:08:27;100955.59;;;12.47;100.00
59757;BME280;45631;51.962;5.974;2022-10-23T08:10:56;100955.25;;;12.51;100.00
59757;BME280;45631;51.962;5.974;2022-10-23T08:13:24;100949.66;;;12.56;100.00
59757;BME280;45631;51.962;5.974;2022-10-23T08:15:52;100953.00;;;12.58;100.00
59757;BME280;45631;51.962;5.974;2022-10-23T08:18:21;100956.16;;;12.63;100.00
59757;BME280;45631;51.962;5.974;2022-10-23T08:20:51;100949.72;;;12.67;100.00
59757;BME280;45631;51.962;5.974;2022-10-23T08:23:21;100936.28;;;12.71;100.00
59757;BME280;45631;51.962;5.974;2022-10-23T08:25:55;100947.03;;;12.80;100.00
59757;BME280;45631;51.962;5.974;2022-10-23T08:28:24;100943.53;;;12.80;100.00
59757;BME280;45631;51.962;5.974;2022-10-23T08:30:52;100939.00;;;12.82;100.00
59757;BME280;45631;51.962;5.974;2022-10-23T08:33:21;100939.53;;;12.87;100.00
59757;BME280;45631;51.962;5.974;2022-10-23T08:35:50;100932.31;;;12.89;100.00
59757;BME280;45631;51.962;5.974;2022-10-23T08:38:19;100922.38;;;12.93;100.00
59757;BME280;45631;51.962;5.974;2022-10-23T08:40:47;100920.25;;;12.98;100.00
59757;BME280;45631;51.962;5.974;2022-10-23T08:43:20;100918.09;;;13.03;100.00
59757;BME280;45631;51.962;5.974;2022-10-23T08:45:52;100923.06;;;13.08;100.00
59757;BME280;45631;51.962;5.974;2022-10-23T08:48:25;100914.06;;;13.10;100.00
59757;BME280;45631;51.962;5.974;2022-10-23T08:51:01;100912.75;;;13.16;100.00
59757;BME280;45631;51.962;5.974;2022-10-23T08:53:37;100909.63;;;13.22;100.00
59757;BME280;45631;51.962;5.974;2022-10-23T08:56:12;100913.03;;;13.24;100.00
59757;BME280;45631;51.962;5.974;2022-10-23T08:58:45;100900.69;;;13.36;100.00
59757;BME280;45631;51.962;5.974;2022-10-23T09:01:27;100885.22;;;13.43;100.00
59757;BME280;45631;51.962;5.974;2022-10-23T09:03:58;100907.34;;;13.53;100.00
59757;BME280;45631;51.962;5.974;2022-10-23T09:06:35;100903.75;;;13.54;100.00
59757;BME280;45631;51.962;5.974;2022-10-23T09:09:34;100906.88;;;13.59;100.00
59757;BME280;45631;51.962;5.974;2022-10-23T09:12:11;100892.13;;;13.68;100.00
59757;BME280;45631;51.962;5.974;2022-10-23T09:15:00;100885.38;;;13.75;100.00
59757;BME280;45631;51.962;5.974;2022-10-23T09:17:31;100881.41;;;13.81;100.00
59757;BME280;45631;51.962;5.974;2022-10-23T09:20:10;100877.34;;;13.88;100.00
59757;BME280;45631;51.962;5.974;2022-10-23T09:22:41;100869.03;;;13.93;100.00
59757;BME280;45631;51.962;5.974;2022-10-23T09:25:14;100870.47;;;13.97;100.00
59757;BME280;45631;51.962;5.974;2022-10-23T09:27:46;100866.03;;;13.97;100.00
59757;BME280;45631;51.962;5.974;2022-10-23T09:30:32;100863.50;;;13.96;100.00
59757;BME280;45631;51.962;5.974;2022-10-23T09:33:12;100866.63;;;14.01;100.00
59757;BME280;45631;51.962;5.974;2022-10-23T09:35:55;100858.31;;;14.06;100.00
59757;BME280;45631;51.962;5.974;2022-10-23T09:38:31;100859.41;;;14.14;100.00
59757;BME280;45631;51.962;5.974;2022-10-23T09:41:03;100861.09;;;14.15;100.00
59757;BME280;45631;51.962;5.974;2022-10-23T09:43:33;100848.94;;;14.24;100.00
59757;BME280;45631;51.962;5.974;2022-10-23T09:46:03;100855.53;;;14.30;100.00
59757;BME280;45631;51.962;5.974;2022-10-23T09:48:33;100854.31;;;14.34;100.00
59757;BME280;45631;51.962;5.974;2022-10-23T09:51:03;100852.53;;;14.34;100.00
59757;BME280;45631;51.962;5.974;2022-10-23T09:53:35;100847.69;;;14.40;100.00
59757;BME280;45631;51.962;5.974;2022-10-23T09:56:06;100848.28;;;14.43;100.00
59757;BME280;45631;51.962;5.974;2022-10-23T09:58:53;100842.59;;;14.48;100.00
59757;BME280;45631;51.962;5.974;2022-10-23T10:01:23;100833.47;;;14.52;100.00
59757;BME280;45631;51.962;5.974;2022-10-23T10:03:52;100822.63;;;14.55;100.00
59757;BME280;45631;51.962;5.974;2022-10-23T10:06:24;100827.53;;;14.60;100.00
59757;BME280;45631;51.962;5.974;2022-10-23T10:08:57;100833.47;;;14.63;100.00
59757;BME280;45631;51.962;5.974;2022-10-23T10:11:29;100829.47;;;14.69;100.00
59757;BME280;45631;51.962;5.974;2022-10-23T10:14:12;100817.78;;;14.72;100.00
59757;BME280;45631;51.962;5.974;2022-10-23T10:16:50;100806.94;;;14.75;100.00
59757;BME280;45631;51.962;5.974;2022-10-23T10:19:29;100816.69;;;14.74;100.00
59757;BME280;45631;51.962;5.974;2022-10-23T10:22:07;100809.31;;;14.78;100.00
59757;BME280;45631;51.962;5.974;2022-10-23T10:24:45;100805.53;;;14.92;100.00
59757;BME280;45631;51.962;5.974;2022-10-23T10:27:30;100799.00;;;14.96;100.00
59757;BME280;45631;51.962;5.974;2022-10-23T10:30:07;100797.19;;;14.96;100.00
59757;BME280;45631;51.962;5.974;2022-10-23T10:32:40;100792.47;;;15.00;100.00
59757;BME280;45631;51.962;5.974;2022-10-23T10:35:18;100792.06;;;15.04;100.00
59757;BME280;45631;51.962;5.974;2022-10-23T10:38:09;100784.59;;;15.10;100.00
59757;BME280;45631;51.962;5.974;2022-10-23T10:40:49;100781.66;;;15.13;100.00
59757;BME280;45631;51.962;5.974;2022-10-23T10:43:32;100773.91;;;15.21;100.00
59757;BME280;45631;51.962;5.974;2022-10-23T10:46:06;100770.44;;;15.20;100.00
59757;BME280;45631;51.962;5.974;2022-10-23T10:48:42;100766.84;;;15.31;100.00
59757;BME280;45631;51.962;5.974;2022-10-23T10:51:21;100753.34;;;15.34;100.00
59757;BME280;45631;51.962;5.974;2022-10-23T10:54:01;100744.41;;;15.35;100.00
59757;BME280;45631;51.962;5.974;2022-10-23T10:56:35;100731.16;;;15.35;100.00
59757;BME280;45631;51.962;5.974;2022-10-23T10:59:12;100725.28;;;15.32;100.00
59757;BME280;45631;51.962;5.974;2022-10-23T11:01:47;100723.53;;;15.42;100.00
59757;BME280;45631;51.962;5.974;2022-10-23T11:04:30;100710.56;;;15.49;100.00
59757;BME280;45631;51.962;5.974;2022-10-23T11:07:00;100708.91;;;15.58;100.00
59757;BME280;45631;51.962;5.974;2022-10-23T11:09:33;100698.59;;;15.64;100.00
59757;BME280;45631;51.962;5.974;2022-10-23T11:12:03;100706.00;;;15.70;100.00
59757;BME280;45631;51.962;5.974;2022-10-23T11:14:32;100703.91;;;15.74;100.00
59757;BME280;45631;51.962;5.974;2022-10-23T11:17:06;100691.97;;;15.80;100.00
59757;BME280;45631;51.962;5.974;2022-10-23T11:19:40;100695.88;;;15.85;100.00
59757;BME280;45631;51.962;5.974;2022-10-23T11:22:19;100697.25;;;15.89;100.00
59757;BME280;45631;51.962;5.974;2022-10-23T11:25:11;100695.63;;;15.98;100.00
59757;BME280;45631;51.962;5.974;2022-10-23T11:28:24;100687.81;;;16.07;100.00
59757;BME280;45631;51.962;5.974;2022-10-23T11:31:07;100686.97;;;16.26;100.00
59757;BME280;45631;51.962;5.974;2022-10-23T11:34:15;100689.19;;;16.30;100.00
59757;BME280;45631;51.962;5.974;2022-10-23T11:36:49;100686.66;;;16.38;100.00
59757;BME280;45631;51.962;5.974;2022-10-23T11:39:22;100670.72;;;16.48;100.00
59757;BME280;45631;51.962;5.974;2022-10-23T11:41:53;100667.66;;;16.53;100.00
59757;BME280;45631;51.962;5.974;2022-10-23T11:44:40;100666.78;;;16.62;100.00
59757;BME280;45631;51.962;5.974;2022-10-23T11:47:28;100651.25;;;16.67;100.00
59757;BME280;45631;51.962;5.974;2022-10-23T11:50:13;100634.91;;;16.72;100.00
59757;BME280;45631;51.962;5.974;2022-10-23T11:52:53;100629.38;;;16.83;100.00
59757;BME280;45631;51.962;5.974;2022-10-23T11:55:56;100623.38;;;16.91;100.00
59757;BME280;45631;51.962;5.974;2022-10-23T11:58:26;100632.44;;;16.98;100.00
59757;BME280;45631;51.962;5.974;2022-10-23T12:01:05;100624.88;;;17.03;100.00
59757;BME280;45631;51.962;5.974;2022-10-23T12:03:49;100624.66;;;17.15;100.00
59757;BME280;45631;51.962;5.974;2022-10-23T12:06:22;100614.97;;;17.23;100.00
59757;BME280;45631;51.962;5.974;2022-10-23T12:08:55;100605.88;;;17.26;100.00
59757;BME280;45631;51.962;5.974;2022-10-23T12:11:28;100612.19;;;17.43;100.00
59757;BME280;45631;51.962;5.974;2022-10-23T12:14:24;100620.47;;;17.58;100.00
59757;BME280;45631;51.962;5.974;2022-10-23T12:16:54;100617.44;;;17.71;100.00
59757;BME280;45631;51.962;5.974;2022-10-23T12:19:23;100611.75;;;17.84;100.00
59757;BME280;45631;51.962;5.974;2022-10-23T12:21:53;100601.25;;;17.82;100.00
59757;BME280;45631;51.962;5.974;2022-10-23T12:24:34;100605.06;;;17.98;100.00
59757;BME280;45631;51.962;5.974;2022-10-23T12:27:24;100597.63;;;18.01;100.00
59757;BME280;45631;51.962;5.974;2022-10-23T12:30:14;100596.81;;;18.09;100.00
59757;BME280;45631;51.962;5.974;2022-10-23T12:33:09;100599.38;;;18.11;100.00
59757;BME280;45631;51.962;5.974;2022-10-23T12:38:46;100585.09;;;18.20;100.00
59757;BME280;45631;51.962;5.974;2022-10-23T12:41:21;100583.66;;;18.26;100.00
59757;BME280;45631;51.962;5.974;2022-10-23T12:43:53;100581.50;;;18.29;100.00
59757;BME280;45631;51.962;5.974;2022-10-23T12:46:31;100577.84;;;18.30;100.00
59757;BME280;45631;51.962;5.974;2022-10-23T12:49:10;100576.41;;;18.36;100.00
59757;BME280;45631;51.962;5.974;2022-10-23T12:51:40;100571.59;;;18.39;100.00
59757;BME280;45631;51.962;5.974;2022-10-23T12:54:14;100562.31;;;18.44;100.00
59757;BME280;45631;51.962;5.974;2022-10-23T12:56:42;100557.34;;;18.49;100.00
59757;BME280;45631;51.962;5.974;2022-10-23T12:59:14;100552.69;;;18.51;100.00
59757;BME280;45631;51.962;5.974;2022-10-23T13:01:43;100553.16;;;18.46;100.00
59757;BME280;45631;51.962;5.974;2022-10-23T13:04:26;100538.34;;;18.44;100.00
59757;BME280;45631;51.962;5.974;2022-10-23T13:06:56;100538.84;;;18.47;100.00
59757;BME280;45631;51.962;5.974;2022-10-23T13:09:29;100534.41;;;18.56;100.00
59757;BME280;45631;51.962;5.974;2022-10-23T13:11:58;100529.78;;;18.66;100.00